Time;durP1;ratioP1;P1;durP2;ratioP2;P2;SDS_P1;SDS_P2;PMS_P1;PMS_P2;Temp;Humidity;BMP_temperature;BMP_pressure;BME280_temperature;BME280_humidity;BME280_pressure;Samples;Min_cycle;Max_cycle;Signal;HPM_P1;HPM_P2
2021/10/02 00:35:51;;;;;;;0.32;0.32;;;12.20;97.30;;;;;;5059295;28;20039;-70
2021/10/02 00:41:37;;;;;;;0.45;0.45;;;12.20;97.80;;;;;;5059781;28;20526;-70
2021/10/02 00:46:31;;;;;;;0.30;0.30;;;12.20;98.00;;;;;;5062717;28;20251;-70
2021/10/02 00:48:58;;;;;;;0.25;0.20;;;12.20;98.10;;;;;;5058177;28;20017;-70
2021/10/02 00:51:24;;;;;;;0.20;0.20;;;12.20;98.40;;;;;;5054572;28;20643;-69
2021/10/02 00:53:49;;;;;;;0.30;0.20;;;12.10;98.40;;;;;;5063391;28;20029;-70
2021/10/02 00:56:15;;;;;;;0.65;0.30;;;12.10;98.60;;;;;;5061212;28;20024;-69
2021/10/02 00:58:46;;;;;;;0.63;0.63;;;12.10;98.90;;;;;;5036069;28;20036;-70
2021/10/02 01:01:15;;;;;;;0.73;0.73;;;12.10;99.50;;;;;;5054395;28;20024;-70
2021/10/02 01:04:08;;;;;;;0.93;0.93;;;12.10;99.30;;;;;;5052294;28;20380;-70
2021/10/02 01:07:09;;;;;;;0.10;0.10;;;12.00;99.60;;;;;;5049637;28;20113;-70
2021/10/02 01:10:14;;;;;;;0.00;0.00;;;12.00;99.60;;;;;;5057253;28;20029;-70
2021/10/02 01:13:19;;;;;;;2.50;0.88;;;12.00;99.90;;;;;;5055991;28;20418;-70
2021/10/02 01:15:56;;;;;;;0.00;0.00;;;11.90;99.90;;;;;;5059141;28;20446;-70
2021/10/02 01:18:46;;;;;;;0.22;0.22;;;11.90;99.90;;;;;;5062372;28;20040;-70
2021/10/02 01:21:48;;;;;;;0.57;0.38;;;11.90;99.90;;;;;;5059168;28;20016;-70
2021/10/02 01:24:35;;;;;;;0.25;0.22;;;11.80;99.90;;;;;;5059900;28;20035;-70
2021/10/02 01:27:19;;;;;;;0.88;0.65;;;11.80;99.90;;;;;;5063852;28;20043;-70
2021/10/02 01:29:46;;;;;;;0.30;0.22;;;11.70;99.90;;;;;;5065411;28;20066;-69
2021/10/02 01:32:21;;;;;;;0.65;0.40;;;11.80;99.90;;;;;;5054828;28;20025;-69
2021/10/02 01:48:44;;;;;;;0.38;0.38;;;11.70;99.90;;;;;;5059968;28;20464;-70
2021/10/02 01:51:11;;;;;;;0.55;0.55;;;11.70;99.90;;;;;;5061178;28;20467;-70
2021/10/02 01:53:38;;;;;;;0.30;0.30;;;11.70;99.90;;;;;;5059404;28;20131;-71
2021/10/02 01:56:06;;;;;;;0.10;0.10;;;11.70;99.90;;;;;;5061987;28;20504;-70
2021/10/02 01:58:34;;;;;;;0.22;0.22;;;11.70;99.90;;;;;;5049378;28;20068;-70
2021/10/02 02:01:03;;;;;;;1.27;0.63;;;11.60;99.90;;;;;;5043620;28;20052;-70
2021/10/02 02:03:31;;;;;;;0.85;0.82;;;11.60;99.90;;;;;;5038586;28;20112;-70
2021/10/02 02:05:56;;;;;;;0.38;0.38;;;11.70;99.90;;;;;;5040770;28;20041;-70
2021/10/02 02:08:28;;;;;;;1.95;0.93;;;11.70;99.90;;;;;;5045668;28;20553;-70
2021/10/02 02:10:54;;;;;;;;;;;11.70;99.90;;;;;;5045591;28;20032;-70
2021/10/02 02:13:21;;;;;;;1.83;1.50;;;11.70;99.90;;;;;;5043741;28;19916;-71
2021/10/02 02:15:47;;;;;;;0.65;0.65;;;11.70;99.90;;;;;;5039890;28;20055;-70
2021/10/02 02:18:17;;;;;;;1.17;0.80;;;11.70;99.90;;;;;;5047253;28;20227;-70
2021/10/02 02:20:47;;;;;;;3.00;1.33;;;11.70;99.90;;;;;;5044324;28;20025;-70
2021/10/02 02:23:13;;;;;;;1.00;0.77;;;11.70;99.90;;;;;;5036579;28;20033;-70
2021/10/02 02:25:39;;;;;;;0.85;0.85;;;11.70;99.90;;;;;;5040422;28;20044;-70
2021/10/02 02:28:07;;;;;;;2.05;0.88;;;11.70;99.90;;;;;;5041867;28;20028;-71
2021/10/02 02:30:34;;;;;;;0.85;0.68;;;11.70;99.90;;;;;;5045297;28;20032;-70
2021/10/02 02:33:01;;;;;;;1.27;1.13;;;11.80;99.90;;;;;;5043955;28;20017;-70
2021/10/02 02:35:26;;;;;;;0.55;0.28;;;11.80;99.90;;;;;;5038338;28;20515;-70
2021/10/02 02:37:52;;;;;;;0.10;0.10;;;11.80;99.90;;;;;;5040618;28;20029;-71
2021/10/02 02:40:18;;;;;;;2.85;0.80;;;11.90;99.90;;;;;;5044080;28;20399;-70
2021/10/02 02:42:44;;;;;;;1.17;0.55;;;11.90;99.90;;;;;;5045562;28;20033;-70
2021/10/02 02:45:12;;;;;;;0.45;0.45;;;11.90;99.90;;;;;;5030815;28;20088;-70
2021/10/02 02:47:46;;;;;;;0.43;0.43;;;11.90;99.90;;;;;;5039097;28;20036;-70
2021/10/02 02:50:20;;;;;;;1.90;0.93;;;11.90;99.90;;;;;;5030430;28;20025;-70
2021/10/02 02:53:05;;;;;;;0.20;0.20;;;11.90;99.90;;;;;;5035643;28;20113;-70
2021/10/02 02:55:38;;;;;;;0.32;0.32;;;12.00;99.90;;;;;;5033290;28;20039;-70
2021/10/02 02:58:06;;;;;;;0.98;0.68;;;12.00;99.90;;;;;;5050952;28;20051;-70
2021/10/02 03:00:35;;;;;;;0.20;0.20;;;12.00;99.90;;;;;;5058580;28;20029;-70
2021/10/02 03:03:04;;;;;;;0.85;0.63;;;12.00;99.90;;;;;;5059221;28;20078;-71
2021/10/02 03:05:31;;;;;;;1.90;0.82;;;12.00;99.90;;;;;;5059161;28;21497;-70
2021/10/02 03:08:06;;;;;;;0.13;0.13;;;12.00;99.90;;;;;;5061617;28;20033;-71
2021/10/02 03:10:32;;;;;;;1.30;0.50;;;12.10;99.90;;;;;;5064324;28;20056;-70
2021/10/02 03:13:04;;;;;;;0.40;0.40;;;12.00;99.90;;;;;;5058982;28;20056;-70
2021/10/02 03:15:30;;;;;;;1.40;0.60;;;12.10;99.90;;;;;;5059119;28;20024;-70
2021/10/02 03:17:57;;;;;;;0.45;0.30;;;12.00;99.90;;;;;;5058673;28;20483;-70
2021/10/02 03:20:24;;;;;;;0.20;0.20;;;12.10;99.90;;;;;;5061181;28;20045;-70
2021/10/02 03:22:52;;;;;;;0.50;0.22;;;12.20;99.90;;;;;;5060975;28;20696;-70
2021/10/02 03:25:20;;;;;;;0.25;0.25;;;12.20;99.90;;;;;;5061963;28;20483;-70
2021/10/02 03:27:46;;;;;;;0.15;0.15;;;12.30;99.90;;;;;;5058552;28;20034;-70
2021/10/02 03:30:12;;;;;;;0.70;0.40;;;12.30;99.90;;;;;;5062299;28;20033;-70
2021/10/02 03:32:37;;;;;;;0.50;0.50;;;12.30;99.90;;;;;;5060343;28;20111;-71
2021/10/02 03:35:04;;;;;;;0.50;0.40;;;12.30;99.90;;;;;;5055097;28;20029;-71
2021/10/02 03:37:29;;;;;;;0.40;0.40;;;12.20;99.90;;;;;;5047971;28;20029;-70
2021/10/02 03:39:55;;;;;;;0.45;0.22;;;12.30;99.90;;;;;;5057135;28;20157;-71
2021/10/02 03:42:22;;;;;;;0.13;0.13;;;12.30;99.90;;;;;;5060306;28;20063;-71
2021/10/02 03:44:49;;;;;;;0.00;0.00;;;12.30;99.90;;;;;;5064685;28;20063;-70
2021/10/02 03:47:17;;;;;;;0.22;0.22;;;12.30;99.90;;;;;;5061203;28;20028;-70
2021/10/02 03:49:43;;;;;;;0.73;0.68;;;12.30;99.90;;;;;;5059542;28;20111;-70
2021/10/02 03:52:10;;;;;;;1.20;0.45;;;12.40;99.90;;;;;;5050885;28;20468;-70
2021/10/02 03:54:36;;;;;;;0.40;0.40;;;12.40;99.90;;;;;;5052598;28;20024;-70
2021/10/02 03:57:03;;;;;;;0.17;0.17;;;12.40;99.90;;;;;;5052043;28;20040;-70
2021/10/02 03:59:29;;;;;;;1.65;0.30;;;12.40;99.90;;;;;;5055254;28;20032;-70
2021/10/02 04:01:54;;;;;;;0.57;0.57;;;12.40;99.90;;;;;;5054666;28;20025;-70
2021/10/02 04:04:22;;;;;;;0.30;0.22;;;12.50;99.90;;;;;;5059576;28;20063;-70
2021/10/02 04:06:48;;;;;;;0.47;0.40;;;12.50;99.90;;;;;;5059277;28;20021;-70
2021/10/02 04:09:13;;;;;;;0.57;0.57;;;12.50;99.90;;;;;;5056278;28;20429;-71
2021/10/02 04:11:39;;;;;;;0.30;0.30;;;12.50;99.90;;;;;;5062196;28;20027;-70
2021/10/02 04:14:04;;;;;;;0.43;0.43;;;12.50;99.90;;;;;;5062004;28;20017;-70
2021/10/02 04:16:30;;;;;;;0.20;0.15;;;12.40;99.90;;;;;;5056289;28;20045;-70
2021/10/02 04:18:58;;;;;;;0.50;0.50;;;12.50;99.90;;;;;;5057506;28;20028;-70
2021/10/02 04:21:23;;;;;;;0.93;0.65;;;12.50;99.90;;;;;;5064456;28;20044;-70
2021/10/02 04:23:50;;;;;;;0.25;0.25;;;12.50;99.90;;;;;;5049395;28;20367;-70
2021/10/02 04:26:16;;;;;;;0.35;0.35;;;12.50;99.90;;;;;;5054215;28;20435;-71
2021/10/02 04:28:41;;;;;;;0.60;0.60;;;12.50;99.90;;;;;;5058721;28;20028;-71
2021/10/02 04:31:07;;;;;;;0.68;0.68;;;12.50;99.90;;;;;;5051392;28;20131;-71
2021/10/02 04:33:32;;;;;;;0.40;0.40;;;12.50;99.90;;;;;;5064026;28;20553;-70
2021/10/02 04:35:58;;;;;;;1.20;0.60;;;12.50;99.90;;;;;;5064606;28;20044;-70
2021/10/02 04:38:24;;;;;;;0.65;0.65;;;12.50;99.90;;;;;;5058423;28;20068;-70
2021/10/02 04:40:50;;;;;;;0.57;0.28;;;12.50;99.90;;;;;;5064139;28;20032;-70
2021/10/02 04:43:15;;;;;;;0.45;0.40;;;12.50;99.90;;;;;;5057479;28;20498;-71
2021/10/02 04:45:41;;;;;;;1.00;0.95;;;12.50;99.90;;;;;;5058087;28;20582;-70
2021/10/02 04:48:06;;;;;;;0.43;0.43;;;12.40;99.90;;;;;;5057919;28;20029;-71
2021/10/02 04:50:35;;;;;;;0.75;0.68;;;12.40;99.90;;;;;;5059263;28;20033;-70
2021/10/02 04:53:00;;;;;;;0.98;0.65;;;12.40;99.90;;;;;;5062000;28;20494;-71
2021/10/02 04:55:26;;;;;;;0.70;0.70;;;12.40;99.90;;;;;;5065434;28;20116;-71
2021/10/02 04:57:51;;;;;;;0.10;0.10;;;12.40;99.90;;;;;;5054214;28;20139;-71
2021/10/02 05:00:17;;;;;;;0.70;0.70;;;12.40;99.90;;;;;;5036136;28;20482;-70
2021/10/02 05:02:42;;;;;;;0.80;0.50;;;12.40;99.90;;;;;;5032681;28;20060;-70
2021/10/02 05:05:08;;;;;;;0.30;0.30;;;12.30;99.90;;;;;;5026946;28;20040;-70
2021/10/02 05:07:33;;;;;;;0.50;0.50;;;12.30;99.90;;;;;;5042913;28;20082;-71
2021/10/02 05:09:59;;;;;;;0.68;0.50;;;12.30;99.90;;;;;;5043122;28;20017;-70
2021/10/02 05:12:25;;;;;;;0.25;0.25;;;12.30;99.90;;;;;;5041551;28;20033;-71
2021/10/02 05:14:50;;;;;;;0.30;0.20;;;12.30;99.90;;;;;;5035043;28;20036;-71
2021/10/02 05:17:17;;;;;;;0.60;0.43;;;12.20;99.90;;;;;;5030197;28;20025;-70
2021/10/02 05:19:43;;;;;;;0.30;0.30;;;12.20;99.90;;;;;;5040372;28;20033;-71
2021/10/02 05:22:08;;;;;;;0.10;0.10;;;12.20;99.90;;;;;;5034917;28;20021;-70
2021/10/02 05:24:37;;;;;;;0.17;0.17;;;12.20;99.90;;;;;;5033157;28;20678;-71
2021/10/02 05:27:06;;;;;;;0.60;0.60;;;12.20;99.90;;;;;;5039803;28;20384;-70
2021/10/02 05:29:33;;;;;;;1.17;0.57;;;12.20;99.90;;;;;;5036082;28;20043;-70
2021/10/02 05:31:58;;;;;;;0.13;0.13;;;12.20;99.90;;;;;;5041201;28;20025;-70
2021/10/02 05:34:24;;;;;;;0.20;0.20;;;12.20;99.90;;;;;;5039793;28;20037;-70
2021/10/02 05:36:49;;;;;;;0.60;0.52;;;12.20;99.90;;;;;;5041394;28;20674;-70
2021/10/02 05:39:15;;;;;;;1.60;0.75;;;12.20;99.90;;;;;;5041105;28;20384;-70
2021/10/02 05:41:40;;;;;;;0.40;0.40;;;12.20;99.90;;;;;;5041153;28;20040;-70
2021/10/02 05:44:06;;;;;;;0.68;0.45;;;12.10;99.90;;;;;;5044563;28;20052;-70
2021/10/02 05:46:31;;;;;;;0.22;0.22;;;12.20;99.90;;;;;;5042724;28;20387;-71
2021/10/02 05:48:57;;;;;;;0.98;0.20;;;12.30;99.90;;;;;;5041822;28;20021;-70
2021/10/02 05:51:24;;;;;;;0.10;0.10;;;12.30;99.90;;;;;;5027071;28;20085;-70
2021/10/02 05:53:50;;;;;;;0.55;0.55;;;12.30;99.90;;;;;;5038968;28;20029;-71
2021/10/02 05:56:15;;;;;;;0.40;0.40;;;12.30;99.90;;;;;;5038830;28;20392;-70
2021/10/02 05:58:40;;;;;;;0.32;0.25;;;12.30;99.90;;;;;;5053860;28;20041;-71
2021/10/02 06:01:06;;;;;;;4.47;0.57;;;12.30;99.90;;;;;;5058573;28;20664;-71
2021/10/02 06:03:32;;;;;;;0.45;0.45;;;12.30;99.90;;;;;;5058936;28;20025;-71
2021/10/02 06:06:00;;;;;;;0.35;0.22;;;12.30;99.90;;;;;;5059255;28;20033;-70
2021/10/02 06:08:27;;;;;;;0.70;0.15;;;12.40;99.90;;;;;;5064917;28;20033;-71
2021/10/02 06:10:53;;;;;;;1.02;0.63;;;12.40;99.90;;;;;;5059699;28;20041;-71
2021/10/02 06:13:18;;;;;;;7.70;0.63;;;12.50;99.90;;;;;;5065247;28;20028;-71
2021/10/02 06:15:44;;;;;;;0.75;0.75;;;12.50;99.90;;;;;;5061417;28;20028;-71
2021/10/02 06:18:09;;;;;;;0.38;0.20;;;12.50;99.90;;;;;;5058933;28;20025;-71
2021/10/02 06:20:34;;;;;;;0.22;0.20;;;12.60;99.90;;;;;;5054396;28;20020;-70
2021/10/02 06:23:03;;;;;;;0.40;0.22;;;12.60;99.90;;;;;;5066654;28;20429;-71
2021/10/02 06:25:28;;;;;;;0.43;0.43;;;12.60;99.90;;;;;;5060591;28;20028;-71
2021/10/02 06:27:54;;;;;;;0.60;0.60;;;12.70;99.90;;;;;;5061715;28;20017;-71
2021/10/02 06:30:19;;;;;;;1.30;0.80;;;12.70;99.90;;;;;;5058867;28;20017;-71
2021/10/02 06:32:45;;;;;;;0.40;0.38;;;12.80;99.90;;;;;;5061573;28;20035;-70
2021/10/02 06:35:11;;;;;;;0.82;0.40;;;12.80;99.90;;;;;;5064314;28;20144;-70
2021/10/02 06:37:37;;;;;;;0.60;0.60;;;12.80;99.90;;;;;;5066483;28;20169;-69
2021/10/02 06:40:16;;;;;;;0.20;0.20;;;12.90;99.90;;;;;;5068115;28;20025;-70
2021/10/02 06:42:42;;;;;;;2.53;0.63;;;12.90;99.90;;;;;;5066008;28;20028;-70
2021/10/02 06:45:08;;;;;;;0.57;0.38;;;13.00;99.90;;;;;;5062214;28;20028;-69
2021/10/02 06:47:34;;;;;;;0.13;0.13;;;13.00;99.90;;;;;;5065936;28;20509;-71
2021/10/02 06:50:00;;;;;;;1.98;0.73;;;13.10;99.90;;;;;;5057330;28;20037;-72
2021/10/02 06:52:30;;;;;;;0.25;0.22;;;13.10;99.90;;;;;;5059804;28;20479;-71
2021/10/02 06:54:55;;;;;;;0.38;0.38;;;13.10;99.90;;;;;;5055291;28;20028;-72
2021/10/02 06:57:22;;;;;;;0.30;0.30;;;13.10;99.90;;;;;;5057402;28;20055;-71
2021/10/02 06:59:47;;;;;;;0.13;0.13;;;13.10;99.90;;;;;;5044406;28;20037;-69
2021/10/02 07:02:13;;;;;;;0.50;0.50;;;13.20;99.90;;;;;;5037851;28;20747;-71
2021/10/02 07:04:39;;;;;;;0.50;0.50;;;13.20;99.90;;;;;;5045681;28;20045;-71
2021/10/02 07:07:04;;;;;;;0.95;0.75;;;13.20;99.90;;;;;;5045598;28;20023;-71
2021/10/02 07:09:31;;;;;;;0.15;0.15;;;13.40;99.90;;;;;;5041390;28;20029;-71
2021/10/02 07:11:56;;;;;;;0.30;0.30;;;13.40;99.90;;;;;;5046612;28;20075;-70
2021/10/02 07:14:22;;;;;;;1.05;0.95;;;13.50;99.90;;;;;;5037417;28;20033;-71
2021/10/02 07:16:48;;;;;;;0.40;0.40;;;13.60;99.90;;;;;;5039959;28;20029;-71
2021/10/02 07:19:14;;;;;;;0.55;0.50;;;13.70;99.90;;;;;;5040624;28;20049;-71
2021/10/02 07:21:40;;;;;;;0.85;0.35;;;13.70;99.90;;;;;;5040141;28;20029;-71
2021/10/02 07:24:06;;;;;;;0.75;0.47;;;13.80;99.90;;;;;;5044800;28;20203;-71
2021/10/02 07:26:32;;;;;;;0.47;0.47;;;13.90;99.90;;;;;;5042055;28;20052;-70
2021/10/02 07:28:58;;;;;;;0.32;0.30;;;13.90;99.90;;;;;;5043047;28;20028;-70
2021/10/02 07:31:54;;;;;;;;;;;;;;;;;;;;;
2021/10/02 07:34:20;;;;;;;1.13;0.40;;;14.10;99.90;;;;;;5036317;28;20044;-71
2021/10/02 07:36:46;;;;;;;0.25;0.25;;;14.10;99.90;;;;;;5052790;28;20454;-70
2021/10/02 07:39:12;;;;;;;0.70;0.70;;;14.20;99.90;;;;;;5047634;28;20032;-70
2021/10/02 07:41:39;;;;;;;0.20;0.20;;;14.20;99.90;;;;;;5042064;28;20029;-70
2021/10/02 07:44:05;;;;;;;0.65;0.60;;;14.30;99.90;;;;;;5044901;28;20029;-69
2021/10/02 07:46:34;;;;;;;1.95;1.35;;;14.30;99.20;;;;;;5047261;28;20021;-70
2021/10/02 07:49:00;;;;;;;0.90;0.68;;;14.30;99.10;;;;;;5042531;28;20025;-71
2021/10/02 07:51:26;;;;;;;0.47;0.47;;;14.30;99.20;;;;;;5046027;28;20056;-71
2021/10/02 07:53:54;;;;;;;0.60;0.60;;;14.40;99.40;;;;;;5044228;28;20063;-75
2021/10/02 07:56:20;;;;;;;1.23;1.00;;;14.50;99.00;;;;;;5043522;28;20125;-71
2021/10/02 07:58:54;;;;;;;0.30;0.30;;;14.50;98.50;;;;;;5057575;28;20499;-71
2021/10/02 08:01:21;;;;;;;0.17;0.17;;;14.50;98.30;;;;;;5054667;28;20054;-71
2021/10/02 08:03:48;;;;;;;0.05;0.05;;;14.60;97.70;;;;;;5045502;28;20387;-72
2021/10/02 08:06:15;;;;;;;1.75;0.63;;;14.60;97.70;;;;;;5053021;28;20106;-72
2021/10/02 08:08:41;;;;;;;1.13;0.90;;;14.60;98.20;;;;;;5047925;28;20033;-72
2021/10/02 08:11:07;;;;;;;0.40;0.40;;;14.70;97.30;;;;;;5061328;28;20028;-71
2021/10/02 08:13:33;;;;;;;0.85;0.68;;;14.70;97.40;;;;;;5060497;28;20454;-70
2021/10/02 08:16:01;;;;;;;0.63;0.63;;;14.70;97.30;;;;;;5061865;28;20036;-71
2021/10/02 08:18:30;;;;;;;0.20;0.20;;;14.70;97.00;;;;;;5066502;28;20032;-71
2021/10/02 08:20:58;;;;;;;0.80;0.80;;;14.80;97.10;;;;;;5049203;28;20040;-72
2021/10/02 08:23:25;;;;;;;1.02;0.73;;;14.80;97.10;;;;;;5059855;28;20078;-71
2021/10/02 08:25:52;;;;;;;1.08;1.00;;;14.80;96.90;;;;;;5056347;28;20021;-72
2021/10/02 08:28:19;;;;;;;0.20;0.20;;;14.80;96.80;;;;;;5050890;28;20087;-72
2021/10/02 08:30:47;;;;;;;0.65;0.65;;;14.80;96.80;;;;;;5056422;28;20024;-71
2021/10/02 08:33:13;;;;;;;1.73;0.70;;;14.70;97.30;;;;;;5061737;28;20020;-71
2021/10/02 08:35:40;;;;;;;0.50;0.50;;;14.70;97.50;;;;;;5049287;28;20494;-71
2021/10/02 08:38:06;;;;;;;0.52;0.25;;;14.60;97.60;;;;;;5054117;28;20181;-72
2021/10/02 08:40:32;;;;;;;1.27;0.93;;;14.60;98.00;;;;;;5059298;28;20066;-72
2021/10/02 08:42:58;;;;;;;0.47;0.45;;;14.70;98.20;;;;;;5061142;28;20028;-72
2021/10/02 08:45:28;;;;;;;1.48;0.40;;;14.70;98.30;;;;;;5060295;28;20430;-71
2021/10/02 08:47:56;;;;;;;0.95;0.73;;;14.80;98.10;;;;;;5066337;28;20059;-72
2021/10/02 08:50:21;;;;;;;0.75;0.75;;;14.90;98.30;;;;;;5056188;28;20017;-71
2021/10/02 08:52:48;;;;;;;0.43;0.43;;;15.00;97.30;;;;;;5061261;28;20037;-71
2021/10/02 08:55:14;;;;;;;0.30;0.30;;;15.00;96.90;;;;;;5052146;28;20055;-71
2021/10/02 08:57:42;;;;;;;1.42;1.33;;;15.00;96.50;;;;;;5065995;28;20040;-71
2021/10/02 09:00:14;;;;;;;2.28;0.60;;;15.10;96.40;;;;;;5062203;28;20390;-71
2021/10/02 09:02:40;;;;;;;0.43;0.43;;;15.20;96.80;;;;;;5057414;28;20024;-71
2021/10/02 09:05:08;;;;;;;0.38;0.38;;;15.20;95.90;;;;;;5058191;28;20695;-71
2021/10/02 09:07:34;;;;;;;1.45;1.00;;;15.30;96.00;;;;;;5059267;28;20029;-71
2021/10/02 09:10:02;;;;;;;0.10;0.10;;;15.40;95.10;;;;;;5057007;28;20540;-71
2021/10/02 09:12:28;;;;;;;0.55;0.50;;;15.40;94.70;;;;;;5061197;28;20059;-71
2021/10/02 09:14:54;;;;;;;1.27;0.68;;;15.50;94.20;;;;;;5062476;28;20036;-72
2021/10/02 09:17:20;;;;;;;0.63;0.63;;;15.60;95.00;;;;;;5055814;28;20029;-71
2021/10/02 09:19:47;;;;;;;1.70;0.80;;;15.60;95.70;;;;;;5052066;28;20155;-71
2021/10/02 09:22:13;;;;;;;0.52;0.13;;;15.60;95.00;;;;;;5056678;28;20033;-71
2021/10/02 09:24:45;;;;;;;0.55;0.52;;;15.70;94.60;;;;;;5058980;28;20029;-71
2021/10/02 09:27:17;;;;;;;;;;;15.80;94.10;;;;;;5060135;28;20143;-72
2021/10/02 09:29:54;;;;;;;1.08;0.50;;;15.80;94.10;;;;;;5061444;28;19986;-72
2021/10/02 09:32:25;;;;;;;0.85;0.85;;;15.90;93.90;;;;;;5068621;28;20020;-71
2021/10/02 09:34:56;;;;;;;0.95;0.32;;;16.00;93.10;;;;;;5061756;28;20116;-71
2021/10/02 09:37:28;;;;;;;1.13;0.82;;;16.10;93.20;;;;;;5052263;28;20040;-71
2021/10/02 09:40:06;;;;;;;0.47;0.47;;;16.10;92.30;;;;;;5062240;28;20047;-71
2021/10/02 09:42:33;;;;;;;0.82;0.65;;;16.20;92.50;;;;;;5056783;28;20123;-71
2021/10/02 09:45:03;;;;;;;0.77;0.70;;;16.30;92.90;;;;;;5057250;28;20048;-71
2021/10/02 09:47:28;;;;;;;0.10;0.10;;;16.40;92.30;;;;;;5053031;28;20146;-71
2021/10/02 09:49:54;;;;;;;0.10;0.10;;;16.60;92.30;;;;;;5062826;28;20041;-71
2021/10/02 09:52:28;;;;;;;0.32;0.32;;;16.70;92.70;;;;;;5067813;28;20024;-72
2021/10/02 09:54:54;;;;;;;0.68;0.40;;;16.80;92.20;;;;;;5054847;28;20067;-70
2021/10/02 09:57:20;;;;;;;0.22;0.13;;;16.90;91.00;;;;;;5054792;28;20094;-71
2021/10/02 09:59:45;;;;;;;0.45;0.38;;;17.00;90.20;;;;;;5062508;28;20021;-71
2021/10/02 10:02:12;;;;;;;0.28;0.28;;;17.00;90.50;;;;;;5065185;28;20028;-71
2021/10/02 10:04:37;;;;;;;0.25;0.25;;;17.00;90.50;;;;;;5070286;28;20174;-72
2021/10/02 10:07:07;;;;;;;1.90;0.57;;;17.10;91.30;;;;;;5058133;28;20041;-72
2021/10/02 10:09:39;;;;;;;0.20;0.20;;;17.20;89.50;;;;;;5065845;28;20025;-72
2021/10/02 10:12:05;;;;;;;;;;;17.20;89.70;;;;;;5064322;28;20042;-74
2021/10/02 10:14:30;;;;;;;0.15;0.15;;;17.30;89.00;;;;;;5068299;28;19965;-74
2021/10/02 10:16:57;;;;;;;0.38;0.38;;;17.40;89.00;;;;;;5066767;28;20402;-74
2021/10/02 10:19:25;;;;;;;0.20;0.20;;;17.50;90.10;;;;;;5065629;28;20194;-74
2021/10/02 10:22:08;;;;;;;0.10;0.10;;;17.60;88.10;;;;;;5077015;28;20250;-74
2021/10/02 10:24:35;;;;;;;0.52;0.30;;;17.70;86.40;;;;;;5065194;28;20113;-74
2021/10/02 10:27:01;;;;;;;0.15;0.15;;;17.90;84.30;;;;;;5057294;28;20032;-74
2021/10/02 10:29:41;;;;;;;7.43;0.85;;;18.00;84.10;;;;;;5062387;28;20121;-74
2021/10/02 10:32:08;;;;;;;0.43;0.38;;;18.10;82.90;;;;;;5051307;28;20032;-73
2021/10/02 10:34:40;;;;;;;0.52;0.40;;;18.30;82.10;;;;;;5066995;28;20069;-74
2021/10/02 10:37:06;;;;;;;;;;;18.50;81.40;;;;;;5063935;28;20819;-75
2021/10/02 10:39:34;;;;;;;0.15;0.15;;;18.60;79.00;;;;;;5076963;28;20381;-75
2021/10/02 10:42:02;;;;;;;0.60;0.57;;;18.80;77.70;;;;;;5063279;28;20522;-75
2021/10/02 10:44:28;;;;;;;0.43;0.32;;;18.90;75.10;;;;;;5071067;28;20024;-75
2021/10/02 10:46:54;;;;;;;1.00;0.68;;;19.00;74.80;;;;;;5060743;28;20028;-75
2021/10/02 10:49:23;;;;;;;0.65;0.63;;;19.10;74.30;;;;;;5058992;28;20020;-75
2021/10/02 10:51:49;;;;;;;0.20;0.20;;;19.10;75.30;;;;;;5051949;28;20037;-75
2021/10/02 10:54:18;;;;;;;0.15;0.13;;;19.20;75.90;;;;;;5043348;28;20031;-75
2021/10/02 10:56:47;;;;;;;0.47;0.45;;;19.40;74.00;;;;;;5060922;28;20032;-76
2021/10/02 10:59:18;;;;;;;0.15;0.15;;;19.60;74.90;;;;;;5064712;28;20043;-76
2021/10/02 11:01:43;;;;;;;0.20;0.20;;;19.90;72.40;;;;;;5061457;28;20053;-76
2021/10/02 11:04:33;;;;;;;0.40;0.40;;;20.00;70.30;;;;;;5064190;28;20597;-75
2021/10/02 11:06:59;;;;;;;0.17;0.17;;;20.30;70.20;;;;;;5064199;28;20155;-75
2021/10/02 11:09:39;;;;;;;0.00;0.00;;;20.40;70.60;;;;;;5065631;28;20442;-71
2021/10/02 11:12:09;;;;;;;0.30;0.30;;;20.60;70.30;;;;;;5059683;28;20275;-72
2021/10/02 11:14:47;;;;;;;0.30;0.30;;;20.80;69.80;;;;;;5063791;28;20546;-71
2021/10/02 11:17:14;;;;;;;0.08;0.08;;;20.80;69.70;;;;;;5061186;28;20395;-74
2021/10/02 11:19:42;;;;;;;0.47;0.47;;;20.80;69.20;;;;;;5062164;28;20028;-73
2021/10/02 11:23:08;;;;;;;0.13;0.13;;;21.00;67.40;;;;;;5063713;28;20020;-72
2021/10/02 11:25:35;;;;;;;0.43;0.43;;;21.20;67.20;;;;;;4995328;28;20076;-72
2021/10/02 11:28:28;;;;;;;0.77;0.77;;;21.50;66.00;;;;;;5058497;28;20028;-73
2021/10/02 11:31:32;;;;;;;0.63;0.57;;;21.80;66.70;;;;;;5059288;28;20037;-72
2021/10/02 11:33:59;;;;;;;1.27;0.75;;;22.10;66.20;;;;;;5068119;28;20435;-73
2021/10/02 11:36:28;;;;;;;0.35;0.35;;;22.40;64.80;;;;;;5067217;28;20487;-73
2021/10/02 11:39:11;;;;;;;0.63;0.63;;;22.80;63.00;;;;;;5059434;28;20020;-73
2021/10/02 11:41:44;;;;;;;0.40;0.40;;;23.00;63.50;;;;;;5066173;28;20028;-73
2021/10/02 11:44:11;;;;;;;0.75;0.47;;;23.30;60.70;;;;;;5058737;28;20520;-73
2021/10/02 11:46:37;;;;;;;0.30;0.30;;;23.40;61.00;;;;;;5066752;28;20563;-72
2021/10/02 11:49:31;;;;;;;0.30;0.30;;;23.40;60.70;;;;;;5065093;28;20024;-73
2021/10/02 11:52:11;;;;;;;0.25;0.25;;;23.30;62.80;;;;;;5027688;28;20033;-73
2021/10/02 11:54:38;;;;;;;0.20;0.20;;;23.50;61.80;;;;;;5062828;28;20060;-74
2021/10/02 11:57:06;;;;;;;0.43;0.30;;;23.60;61.90;;;;;;5053096;28;20616;-73
2021/10/02 11:59:44;;;;;;;0.40;0.40;;;23.80;61.20;;;;;;5059532;28;20119;-72
2021/10/02 12:02:15;;;;;;;0.93;0.80;;;23.90;61.30;;;;;;5058540;28;20085;-71
2021/10/02 12:04:41;;;;;;;0.40;0.38;;;23.90;61.70;;;;;;5055672;28;20123;-73
2021/10/02 12:07:07;;;;;;;0.32;0.32;;;23.90;61.90;;;;;;5057383;28;20168;-73
2021/10/02 12:09:33;;;;;;;0.60;0.60;;;23.70;61.10;;;;;;5055461;28;20029;-72
2021/10/02 12:11:58;;;;;;;0.60;0.60;;;23.80;59.40;;;;;;5062334;28;20479;-72
2021/10/02 12:14:26;;;;;;;0.32;0.32;;;23.80;59.40;;;;;;5067985;28;20088;-74
2021/10/02 12:17:03;;;;;;;0.20;0.20;;;23.80;60.90;;;;;;5058407;28;20162;-73
2021/10/02 12:19:30;;;;;;;0.22;0.22;;;23.70;59.70;;;;;;5060684;28;20047;-73
2021/10/02 12:22:01;;;;;;;3.28;2.42;;;23.60;58.80;;;;;;5056771;28;20383;-74
2021/10/02 12:24:34;;;;;;;1.25;0.60;;;23.60;60.00;;;;;;5065262;28;20073;-74
2021/10/02 12:27:18;;;;;;;0.73;0.57;;;23.60;58.50;;;;;;5060596;28;20078;-74
2021/10/02 12:29:48;;;;;;;4.03;3.10;;;23.50;59.80;;;;;;5056665;28;20032;-73
2021/10/02 12:32:19;;;;;;;134.52;60.88;;;23.50;59.60;;;;;;5067327;28;20150;-73
2021/10/02 12:34:45;;;;;;;;;;;23.40;59.60;;;;;;5050582;28;20037;-73
2021/10/02 12:37:24;;;;;;;97.03;44.08;;;23.20;60.10;;;;;;5062851;28;19998;-73
2021/10/02 12:40:04;;;;;;;14.35;6.15;;;22.90;61.60;;;;;;5060595;28;20024;-73
2021/10/02 12:42:53;;;;;;;14.50;7.40;;;22.70;61.50;;;;;;5054065;28;20024;-74
2021/10/02 12:45:23;;;;;;;10.18;6.65;;;22.70;63.60;;;;;;5060518;28;20044;-73
2021/10/02 12:47:51;;;;;;;2.95;2.65;;;22.90;63.80;;;;;;5070233;28;20407;-74
2021/10/02 12:50:22;;;;;;;3.40;2.70;;;23.00;60.30;;;;;;5061814;28;20048;-73
2021/10/02 12:52:48;;;;;;;3.78;3.13;;;23.10;63.10;;;;;;5050212;28;20033;-74
2021/10/02 12:55:29;;;;;;;2.45;1.83;;;23.40;59.70;;;;;;5057413;28;20071;-73
2021/10/02 12:57:55;;;;;;;3.83;1.23;;;23.70;59.60;;;;;;5060796;28;20043;-72
2021/10/02 13:00:24;;;;;;;1.05;0.95;;;24.00;57.60;;;;;;5052245;28;20029;-72
2021/10/02 13:02:58;;;;;;;2.80;2.33;;;24.10;57.70;;;;;;5056427;28;20052;-73
2021/10/02 13:05:26;;;;;;;0.50;0.50;;;24.50;57.70;;;;;;5063955;28;20120;-72
2021/10/02 13:07:54;;;;;;;2.15;0.88;;;25.10;56.40;;;;;;5052714;28;20185;-72
2021/10/02 13:10:35;;;;;;;1.17;0.93;;;25.70;54.10;;;;;;5063018;28;20037;-73
2021/10/02 13:13:03;;;;;;;0.30;0.30;;;26.10;54.00;;;;;;5063499;28;20027;-72
2021/10/02 13:15:33;;;;;;;0.95;0.90;;;26.20;51.80;;;;;;5062577;28;20029;-72
2021/10/02 13:18:02;;;;;;;3.72;0.68;;;26.10;52.20;;;;;;5061470;28;20027;-73
2021/10/02 13:20:29;;;;;;;0.60;0.50;;;26.30;51.30;;;;;;5063204;28;20458;-72
2021/10/02 13:22:55;;;;;;;0.80;0.30;;;26.60;50.50;;;;;;5064759;28;20033;-72
2021/10/02 13:25:28;;;;;;;0.52;0.43;;;26.80;49.80;;;;;;5063738;28;20032;-73
2021/10/02 13:27:56;;;;;;;0.30;0.30;;;26.50;51.60;;;;;;5062642;28;20024;-72
2021/10/02 13:30:30;;;;;;;0.20;0.20;;;25.80;51.50;;;;;;5063292;28;20112;-71
2021/10/02 13:33:05;;;;;;;0.40;0.30;;;25.70;52.30;;;;;;5058844;28;20023;-72
2021/10/02 13:35:37;;;;;;;0.10;0.10;;;25.70;52.50;;;;;;5067749;28;20036;-73
2021/10/02 13:38:07;;;;;;;0.63;0.50;;;25.70;52.50;;;;;;5068940;28;20048;-71
2021/10/02 13:40:37;;;;;;;0.43;0.43;;;25.50;53.90;;;;;;5063285;28;20075;-72
2021/10/02 13:43:04;;;;;;;0.38;0.30;;;25.50;55.00;;;;;;5062574;28;20049;-72
2021/10/02 13:45:34;;;;;;;0.60;0.40;;;25.70;53.70;;;;;;5062138;28;20418;-72
2021/10/02 13:48:13;;;;;;;1.95;1.23;;;25.70;54.90;;;;;;5062726;28;20480;-72
2021/10/02 13:50:42;;;;;;;0.75;0.50;;;25.80;53.40;;;;;;5055528;28;20090;-72
2021/10/02 13:53:07;;;;;;;0.30;0.30;;;25.90;54.20;;;;;;5058189;28;20038;-73